Time;durP1;ratioP1;P1;durP2;ratioP2;P2;SDS_P1;SDS_P2;PMS_P1;PMS_P2;Temp;Humidity;BMP_temperature;BMP_pressure;BME280_temperature;BME280_humidity;BME280_pressure;Samples;Min_cycle;Max_cycle;Signal;HPM_P1;HPM_P2
2022/12/16 00:01:13;;;;;;;184.38;126.47;;;180.00;2252.80;;;;;;4978868;28;20427;-88
2022/12/16 00:03:40;;;;;;;196.90;132.25;;;179.90;2252.80;;;;;;4977654;28;20118;-90
2022/12/16 00:06:07;;;;;;;175.77;122.30;;;179.90;2252.80;;;;;;4977538;28;20498;-91
2022/12/16 00:08:35;;;;;;;165.32;119.00;;;179.90;2252.80;;;;;;4977088;28;20026;-87
2022/12/16 00:11:02;;;;;;;172.23;115.43;;;179.80;2252.80;;;;;;4977011;28;20030;-87
2022/12/16 00:13:29;;;;;;;183.70;127.53;;;179.80;2252.80;;;;;;4968112;28;20054;-90
2022/12/16 00:15:55;;;;;;;198.52;138.48;;;179.80;2252.80;;;;;;4964674;28;20122;-90
2022/12/16 00:18:21;;;;;;;197.40;140.60;;;179.80;2252.80;;;;;;4958662;28;20062;-90
2022/12/16 00:20:50;;;;;;;122.50;79.20;;;179.90;2252.80;;;;;;4957676;29;20027;-91
2022/12/16 00:23:16;;;;;;;96.45;62.22;;;180.00;2252.80;;;;;;4957996;29;20031;-90
2022/12/16 00:25:43;;;;;;;80.65;52.15;;;204.90;2252.80;;;;;;4957820;29;20098;-91
2022/12/16 00:28:10;;;;;;;72.30;43.25;;;205.20;2252.80;;;;;;4957779;29;20114;-90
2022/12/16 00:30:36;;;;;;;67.82;44.65;;;205.40;2252.80;;;;;;4957754;29;20110;-90
2022/12/16 00:33:02;;;;;;;55.67;38.15;;;205.50;2252.80;;;;;;4957423;29;20113;-90
2022/12/16 00:35:29;;;;;;;44.03;32.45;;;205.60;2252.80;;;;;;4957562;29;20122;-89
2022/12/16 00:37:55;;;;;;;43.75;33.97;;;205.70;2252.80;;;;;;4957398;29;20031;-87
2022/12/16 00:40:21;;;;;;;53.05;43.72;;;230.50;2252.80;;;;;;4956930;28;20078;-89
2022/12/16 00:42:47;;;;;;;51.92;40.67;;;230.40;2252.80;;;;;;4956797;29;20023;-81
2022/12/16 00:45:12;;;;;;;49.75;36.92;;;230.50;2252.80;;;;;;4957066;29;20035;-88
2022/12/16 00:47:38;;;;;;;48.97;36.03;;;230.50;2252.80;;;;;;4957172;29;20039;-89
2022/12/16 00:50:04;;;;;;;44.47;31.23;;;230.50;2252.80;;;;;;4957116;29;20038;-88
2022/12/16 00:52:30;;;;;;;40.70;29.20;;;230.60;2252.80;;;;;;4957066;29;20024;-87
2022/12/16 00:54:56;;;;;;;44.90;29.65;;;230.60;2252.80;;;;;;4956910;29;20027;-87
2022/12/16 00:57:22;;;;;;;43.88;29.15;;;230.70;2252.80;;;;;;4956647;29;20105;-88
2022/12/16 00:59:48;;;;;;;47.13;31.75;;;230.70;2252.80;;;;;;4956947;29;20564;-87
2022/12/16 01:02:14;;;;;;;44.35;30.00;;;230.70;2252.80;;;;;;4957063;29;20039;-88
2022/12/16 01:04:42;;;;;;;44.13;28.67;;;230.70;2252.80;;;;;;4957155;29;20023;-91
2022/12/16 01:07:08;;;;;;;39.70;23.67;;;230.70;2252.80;;;;;;4956689;29;20469;-87
2022/12/16 01:09:34;;;;;;;27.48;18.55;;;230.70;2252.80;;;;;;4956669;29;20082;-88
2022/12/16 01:12:00;;;;;;;22.80;14.35;;;230.80;2252.80;;;;;;4956782;29;20110;-91
2022/12/16 01:14:26;;;;;;;23.33;16.20;;;230.90;2252.80;;;;;;4956076;28;20051;-89
2022/12/16 01:16:52;;;;;;;22.02;14.55;;;231.00;2252.80;;;;;;4975200;28;20109;-89
2022/12/16 01:19:17;;;;;;;20.02;13.55;;;231.00;2252.80;;;;;;4975543;28;20057;-88
2022/12/16 01:21:43;;;;;;;19.98;14.45;;;231.10;2252.80;;;;;;4975388;28;20119;-88
2022/12/16 01:24:10;;;;;;;26.13;17.00;;;231.20;2252.80;;;;;;4975811;28;20046;-88
2022/12/16 01:26:38;;;;;;;18.20;12.55;;;230.90;2252.80;;;;;;4975474;28;20090;-89
2022/12/16 01:29:04;;;;;;;18.40;11.25;;;231.10;2252.80;;;;;;4975672;28;20398;-89
2022/12/16 01:31:31;;;;;;;19.45;12.75;;;256.20;2252.80;;;;;;4975191;28;20052;-88
2022/12/16 01:33:57;;;;;;;18.35;11.88;;;231.20;2252.80;;;;;;4959065;28;20505;-87
2022/12/16 01:36:23;;;;;;;17.70;12.30;;;231.20;2252.80;;;;;;4974930;28;20065;-89
2022/12/16 01:38:49;;;;;;;19.13;11.68;;;231.30;2252.80;;;;;;4975187;28;20059;-90
2022/12/16 01:41:15;;;;;;;18.38;11.85;;;231.30;2252.80;;;;;;4975603;28;20031;-89
2022/12/16 01:43:43;;;;;;;21.08;13.25;;;231.30;2252.80;;;;;;4975514;28;20035;-88
2022/12/16 01:46:19;;;;;;;24.38;17.17;;;231.30;2252.80;;;;;;4991684;28;20463;-89
2022/12/16 01:49:01;;;;;;;24.83;17.33;;;231.30;2252.80;;;;;;4975215;28;20031;-89
2022/12/16 01:51:36;;;;;;;26.60;16.90;;;231.30;2252.80;;;;;;4975459;28;20034;-88
2022/12/16 01:54:18;;;;;;;28.00;17.77;;;256.00;2252.80;;;;;;4975401;28;20356;-88
2022/12/16 01:56:55;;;;;;;28.23;17.80;;;256.00;2252.80;;;;;;4974761;28;20059;-88
2022/12/16 01:59:24;;;;;;;27.25;18.15;;;256.00;2252.80;;;;;;4975121;28;20034;-89
2022/12/16 02:01:49;;;;;;;24.50;16.42;;;256.00;2252.80;;;;;;4975273;28;20054;-88
2022/12/16 02:04:15;;;;;;;28.42;20.17;;;256.00;2252.80;;;;;;4975157;28;20029;-90
2022/12/16 02:06:41;;;;;;;26.00;16.35;;;256.10;2252.80;;;;;;4975062;28;20030;-89
2022/12/16 02:09:10;;;;;;;26.65;16.52;;;256.20;2252.80;;;;;;4975351;28;20426;-89
2022/12/16 02:11:52;;;;;;;27.10;18.60;;;256.30;2252.80;;;;;;4975059;28;20027;-88
2022/12/16 02:14:30;;;;;;;30.98;18.52;;;256.30;2252.80;;;;;;4975044;28;20027;-89
2022/12/16 02:17:03;;;;;;;23.55;16.05;;;256.50;2252.80;;;;;;4974941;28;20034;-88
2022/12/16 02:19:53;;;;;;;17.05;12.60;;;256.30;2252.80;;;;;;4974806;28;20031;-89
2022/12/16 02:22:24;;;;;;;15.02;10.80;;;256.50;2252.80;;;;;;4974883;28;20027;-90
2022/12/16 02:24:53;;;;;;;20.83;15.13;;;256.60;2252.80;;;;;;4974240;28;20455;-88
2022/12/16 02:27:49;;;;;;;29.77;16.65;;;256.50;2252.80;;;;;;4975697;28;20062;-89
2022/12/16 02:30:41;;;;;;;29.02;17.00;;;256.50;2252.80;;;;;;4975152;28;20035;-88
2022/12/16 02:33:15;;;;;;;35.38;22.25;;;256.60;2252.80;;;;;;4974791;28;20455;-88
2022/12/16 02:36:00;;;;;;;34.58;21.17;;;256.50;2252.80;;;;;;4970033;28;20038;-90
2022/12/16 02:38:36;;;;;;;35.80;23.25;;;256.80;2252.80;;;;;;4955509;29;20039;-90
2022/12/16 02:41:36;;;;;;;35.72;22.75;;;256.70;2252.80;;;;;;4954887;29;20038;-88
2022/12/16 02:44:05;;;;;;;44.58;29.17;;;256.60;2252.80;;;;;;4947940;29;20031;-89
2022/12/16 02:46:37;;;;;;;44.75;28.05;;;256.50;2252.80;;;;;;4955152;29;20535;-87
2022/12/16 02:49:11;;;;;;;40.17;25.67;;;256.50;2252.80;;;;;;4955432;29;20027;-89
2022/12/16 02:51:37;;;;;;;39.88;27.40;;;256.50;2252.80;;;;;;4955138;29;20027;-90
2022/12/16 02:54:07;;;;;;;32.63;22.98;;;256.40;2252.80;;;;;;4954831;29;20034;-90
2022/12/16 02:56:54;;;;;;;25.70;16.75;;;256.30;2252.80;;;;;;4955030;29;20050;-89
2022/12/16 02:59:39;;;;;;;30.52;22.45;;;256.30;2252.80;;;;;;4954936;29;20023;-89
2022/12/16 03:02:21;;;;;;;31.27;20.52;;;256.50;2252.80;;;;;;4955415;29;20049;-89
2022/12/16 03:05:11;;;;;;;18.95;12.38;;;256.70;2252.80;;;;;;4955254;29;20027;-89
2022/12/16 03:07:40;;;;;;;15.27;10.25;;;256.90;2252.80;;;;;;4955179;29;20070;-89
2022/12/16 03:10:10;;;;;;;16.75;10.02;;;256.90;2252.80;;;;;;4954762;29;20027;-87
2022/12/16 03:12:39;;;;;;;17.15;11.15;;;281.60;2278.40;;;;;;4954777;29;20034;-88
2022/12/16 03:15:06;;;;;;;16.85;11.18;;;281.60;2278.40;;;;;;4955143;29;20078;-89
2022/12/16 03:17:35;;;;;;;19.05;13.00;;;281.60;2278.40;;;;;;4954870;29;20118;-88
2022/12/16 03:20:09;;;;;;;18.25;12.32;;;281.70;2278.40;;;;;;4954921;29;20118;-89
2022/12/16 03:22:40;;;;;;;11.18;8.75;;;281.70;2278.40;;;;;;4955110;29;20122;-88
2022/12/16 03:25:07;;;;;;;9.25;6.38;;;281.80;2278.40;;;;;;4954739;29;20027;-88
2022/12/16 03:27:49;;;;;;;8.82;6.97;;;281.90;2278.40;;;;;;4955727;28;20122;-87
2022/12/16 03:30:43;;;;;;;11.40;8.40;;;282.00;2278.40;;;;;;4954964;29;20076;-90
2022/12/16 03:33:18;;;;;;;15.20;8.88;;;282.00;2278.40;;;;;;4953038;29;20046;-89
2022/12/16 03:35:55;;;;;;;10.60;7.85;;;282.00;2278.40;;;;;;4954732;28;20447;-88
2022/12/16 03:38:23;;;;;;;10.63;6.22;;;282.00;2278.40;;;;;;4958156;29;20031;-87
2022/12/16 03:40:50;;;;;;;9.27;7.35;;;282.10;2278.40;;;;;;4958188;29;20031;-88
2022/12/16 03:43:16;;;;;;;6.75;4.72;;;282.00;2278.40;;;;;;4958441;29;20033;-88
2022/12/16 03:45:44;;;;;;;7.80;4.72;;;307.40;2304.00;;;;;;4958261;29;20038;-89
2022/12/16 03:48:12;;;;;;;8.05;4.88;;;282.50;2278.40;;;;;;4958303;29;20042;-87
2022/12/16 03:50:39;;;;;;;8.82;4.90;;;307.20;2304.00;;;;;;4958131;29;20029;-86
2022/12/16 03:53:06;;;;;;;9.63;5.80;;;307.30;2304.00;;;;;;4959744;28;20114;-88
2022/12/16 03:55:32;;;;;;;10.25;6.97;;;307.30;2278.40;;;;;;4957806;29;20031;-88
2022/12/16 03:57:58;;;;;;;12.63;7.78;;;307.30;2304.00;;;;;;4958645;29;20031;-88
2022/12/16 04:00:24;;;;;;;12.20;8.13;;;307.30;2304.00;;;;;;4958233;29;20166;-88
2022/12/16 04:02:50;;;;;;;12.68;9.02;;;307.20;2304.00;;;;;;4959093;28;20023;-88
2022/12/16 04:05:17;;;;;;;19.05;12.43;;;282.40;2278.40;;;;;;4958238;29;20058;-89
2022/12/16 04:07:42;;;;;;;19.88;12.65;;;282.40;2278.40;;;;;;4958826;28;20027;-89
2022/12/16 04:10:09;;;;;;;19.95;13.40;;;282.20;2278.40;;;;;;4957660;29;20042;-87
2022/12/16 04:30:17;;;;;;;11.88;8.43;;;;;;;;;;4954008;28;20193;-85
2022/12/16 04:32:24;;;;;;;7.82;6.20;;;;;;;;;;4958062;29;20514;-87
2022/12/16 04:34:51;;;;;;;11.68;7.82;;;;;;;;;;4957371;29;20666;-88
